Time;durP1;ratioP1;P1;durP2;ratioP2;P2;SDS_P1;SDS_P2;PMS_P1;PMS_P2;Temp;Humidity;BMP_temperature;BMP_pressure;BME280_temperature;BME280_humidity;BME280_pressure;Samples;Min_cycle;Max_cycle;Signal;HPM_P1;HPM_P2
2022/04/26 03:36:17;;;;;;;74.73;39.13;;;8.60;99.90;;;;;;5055825;28;20308;-64
2022/04/26 03:38:47;;;;;;;75.63;40.20;;;8.60;99.90;;;;;;5055825;28;20232;-64
2022/04/26 03:41:14;;;;;;;72.77;38.97;;;8.60;99.90;;;;;;5055586;28;20158;-64
2022/04/26 03:43:40;;;;;;;72.00;40.27;;;8.60;99.90;;;;;;5056102;28;20186;-64
2022/04/26 03:46:06;;;;;;;77.73;39.17;;;8.50;99.90;;;;;;5054933;28;20189;-64
2022/04/26 03:48:32;;;;;;;73.30;39.77;;;8.50;99.90;;;;;;5056303;28;20171;-64
2022/04/26 03:50:59;;;;;;;75.63;40.07;;;8.50;99.90;;;;;;5056711;28;20210;-64
2022/04/26 03:53:34;;;;;;;75.83;39.77;;;8.50;99.90;;;;;;5054925;28;20613;-65
2022/04/26 03:56:00;;;;;;;69.80;38.57;;;8.50;99.90;;;;;;5054043;28;20182;-64
2022/04/26 03:58:26;;;;;;;68.03;37.37;;;8.50;99.90;;;;;;5055384;28;20537;-64
2022/04/26 04:00:53;;;;;;;70.97;38.77;;;8.40;99.90;;;;;;5054088;28;20618;-64
2022/04/26 04:03:19;;;;;;;74.27;38.60;;;8.50;99.90;;;;;;5055176;28;20206;-64
2022/04/26 04:05:44;;;;;;;72.00;38.30;;;8.50;99.90;;;;;;5055143;28;20190;-64
2022/04/26 04:08:10;;;;;;;79.07;38.23;;;8.40;99.90;;;;;;5055337;28;20190;-64
2022/04/26 04:10:36;;;;;;;69.10;38.07;;;8.40;99.90;;;;;;5054701;28;20294;-64
2022/04/26 04:13:02;;;;;;;71.57;39.23;;;8.30;99.90;;;;;;5055044;28;20225;-64
2022/04/26 04:15:28;;;;;;;87.90;49.47;;;8.40;99.90;;;;;;5053606;28;20182;-65
2022/04/26 04:17:53;;;;;;;70.13;41.33;;;8.40;99.90;;;;;;5053645;28;20188;-65
2022/04/26 04:20:20;;;;;;;70.33;38.70;;;8.40;99.90;;;;;;5055183;28;20659;-65
2022/04/26 04:22:48;;;;;;;76.00;44.13;;;8.40;99.90;;;;;;5054912;28;20276;-64
2022/04/26 04:25:15;;;;;;;82.37;44.83;;;8.40;99.90;;;;;;5054904;28;20528;-64
2022/04/26 04:27:41;;;;;;;71.07;40.53;;;8.40;99.90;;;;;;5053400;28;20187;-64
2022/04/26 04:30:08;;;;;;;69.03;38.73;;;8.30;99.90;;;;;;5054903;28;20205;-64
2022/04/26 04:32:34;;;;;;;80.80;42.80;;;8.30;99.90;;;;;;5054483;28;20281;-64
2022/04/26 04:35:00;;;;;;;72.23;39.33;;;8.30;99.90;;;;;;5053190;28;20270;-64
2022/04/26 04:37:25;;;;;;;74.03;38.77;;;8.30;99.90;;;;;;5053219;28;20195;-64
2022/04/26 04:39:51;;;;;;;68.53;37.73;;;8.30;99.90;;;;;;5054124;28;20193;-64
2022/04/26 04:42:17;;;;;;;76.57;39.70;;;8.30;99.90;;;;;;5054316;28;20222;-64
2022/04/26 04:44:43;;;;;;;69.17;37.73;;;8.30;99.90;;;;;;5054671;28;20242;-64
2022/04/26 04:47:09;;;;;;;72.00;40.27;;;8.30;99.90;;;;;;5054396;28;20281;-64
2022/04/26 04:49:35;;;;;;;66.73;37.27;;;8.30;99.90;;;;;;5054126;28;20202;-64
2022/04/26 04:52:00;;;;;;;72.57;38.60;;;8.30;99.90;;;;;;5054121;28;20281;-64
2022/04/26 04:54:26;;;;;;;72.60;40.10;;;8.20;99.90;;;;;;5054118;28;20527;-64
2022/04/26 04:56:52;;;;;;;70.07;36.90;;;8.20;99.90;;;;;;5053805;28;20174;-64
2022/04/26 04:59:17;;;;;;;68.07;36.90;;;8.30;99.90;;;;;;5054064;28;20224;-64
2022/04/26 05:01:43;;;;;;;70.93;37.17;;;8.30;99.90;;;;;;5053816;28;20598;-64
2022/04/26 05:04:09;;;;;;;64.03;35.63;;;8.30;99.90;;;;;;5053900;28;20179;-64
2022/04/26 05:06:35;;;;;;;70.50;39.57;;;8.30;99.90;;;;;;5054168;28;20181;-64
2022/04/26 05:09:00;;;;;;;69.50;39.37;;;8.30;99.90;;;;;;5053700;28;20206;-64
2022/04/26 05:11:26;;;;;;;69.47;39.67;;;8.40;99.90;;;;;;5053363;28;20193;-64
2022/04/26 05:13:52;;;;;;;69.77;39.43;;;8.30;99.90;;;;;;5053529;28;20202;-64
2022/04/26 05:16:17;;;;;;;76.27;41.87;;;8.30;99.90;;;;;;5053629;28;20179;-64
2022/04/26 05:18:43;;;;;;;74.30;42.20;;;8.30;99.90;;;;;;5052236;28;20182;-64
2022/04/26 05:21:16;;;;;;;65.57;36.67;;;8.30;99.90;;;;;;5052218;28;20179;-64
2022/04/26 05:26:26;;;;;;;61.27;35.67;;;8.30;99.90;;;;;;5053328;28;20170;-64
2022/04/26 05:28:52;;;;;;;67.90;36.37;;;8.30;99.90;;;;;;5053802;28;20181;-64
2022/04/26 05:31:17;;;;;;;61.00;36.83;;;8.30;99.90;;;;;;5053376;28;20572;-64
2022/04/26 05:33:43;;;;;;;63.90;36.80;;;8.30;99.90;;;;;;5053503;28;20244;-64
2022/04/26 05:36:09;;;;;;;59.13;34.13;;;8.30;99.90;;;;;;5053310;28;20174;-64
2022/04/26 05:38:35;;;;;;;59.07;34.40;;;8.20;99.90;;;;;;5053268;28;20178;-64
2022/04/26 05:41:02;;;;;;;60.70;35.90;;;8.30;99.90;;;;;;5053242;28;20600;-64
2022/04/26 05:43:27;;;;;;;53.93;33.60;;;8.30;99.90;;;;;;5053420;28;20209;-64
2022/04/26 05:45:53;;;;;;;56.23;33.00;;;8.20;99.90;;;;;;5053138;28;20174;-64
2022/04/26 05:48:19;;;;;;;58.37;35.67;;;8.20;99.90;;;;;;5053235;28;20579;-64
2022/04/26 05:50:45;;;;;;;57.63;34.50;;;8.10;99.90;;;;;;5053387;28;20198;-64
2022/04/26 05:53:11;;;;;;;55.17;33.63;;;8.10;99.90;;;;;;5053617;28;20198;-64
2022/04/26 05:55:38;;;;;;;57.20;33.37;;;8.10;99.90;;;;;;5052821;28;20174;-64
2022/04/26 05:58:04;;;;;;;56.77;31.70;;;8.20;99.90;;;;;;5051837;28;20186;-64
2022/04/26 06:00:31;;;;;;;55.83;30.87;;;8.10;99.90;;;;;;5051821;28;20182;-64
2022/04/26 06:02:56;;;;;;;52.03;31.00;;;8.20;99.90;;;;;;5053129;28;20610;-64
2022/04/26 06:05:23;;;;;;;54.07;33.03;;;8.20;99.90;;;;;;5053080;28;20181;-64
2022/04/26 06:07:49;;;;;;;50.07;30.87;;;8.30;99.90;;;;;;5053239;28;20668;-64
2022/04/26 06:10:15;;;;;;;58.93;31.97;;;8.30;99.90;;;;;;5056646;28;20190;-64
2022/04/26 06:12:44;;;;;;;53.37;32.07;;;8.30;99.90;;;;;;5057272;28;20201;-64
2022/04/26 06:15:10;;;;;;;53.13;32.10;;;8.30;99.90;;;;;;5055753;28;20178;-64
2022/04/26 06:17:35;;;;;;;49.13;31.10;;;8.30;99.90;;;;;;5057032;28;20183;-64
2022/04/26 06:20:01;;;;;;;49.87;29.00;;;8.30;99.90;;;;;;5056927;28;20179;-64
2022/04/26 06:22:27;;;;;;;46.40;29.00;;;8.40;99.90;;;;;;5057340;28;20555;-64
2022/04/26 06:24:52;;;;;;;46.73;29.13;;;8.40;99.90;;;;;;5055596;28;20186;-64
2022/04/26 06:27:18;;;;;;;51.33;30.27;;;8.40;99.90;;;;;;5056526;28;20175;-64
2022/04/26 06:29:44;;;;;;;46.80;27.47;;;8.50;99.90;;;;;;5056914;28;20203;-64
2022/04/26 06:32:10;;;;;;;44.60;28.80;;;8.60;99.90;;;;;;5056699;28;20561;-64
2022/04/26 06:34:36;;;;;;;44.20;28.33;;;8.70;99.90;;;;;;5056742;28;20182;-64
2022/04/26 06:37:02;;;;;;;46.87;28.73;;;8.80;99.90;;;;;;5056937;28;20178;-64
2022/04/26 06:39:28;;;;;;;37.50;25.93;;;8.80;99.90;;;;;;5056589;28;20186;-64
2022/04/26 06:41:54;;;;;;;39.10;26.47;;;8.80;99.90;;;;;;5056378;28;20194;-65
2022/04/26 06:44:20;;;;;;;44.27;27.07;;;8.90;99.90;;;;;;5056739;28;20224;-64
2022/04/26 06:46:46;;;;;;;44.10;25.80;;;8.90;99.90;;;;;;5056490;28;20182;-64
2022/04/26 06:49:11;;;;;;;45.10;27.77;;;8.90;99.90;;;;;;5056429;28;20565;-64
2022/04/26 06:51:44;;;;;;;40.80;26.93;;;9.00;99.90;;;;;;5056361;28;20179;-64
2022/04/26 06:54:10;;;;;;;35.43;24.30;;;9.00;99.90;;;;;;5057030;28;20151;-64
2022/04/26 06:56:36;;;;;;;40.50;24.40;;;8.90;99.90;;;;;;5054820;28;20187;-64
2022/04/26 06:59:02;;;;;;;39.90;25.80;;;8.80;99.90;;;;;;5055027;28;20185;-65
2022/04/26 07:01:27;;;;;;;39.00;24.70;;;8.90;99.90;;;;;;5056284;28;20232;-65
2022/04/26 07:03:53;;;;;;;35.23;24.43;;;8.80;99.90;;;;;;5056070;28;20277;-64
2022/04/26 07:06:19;;;;;;;39.17;24.03;;;8.90;99.90;;;;;;5056037;28;20228;-65
2022/04/26 07:08:44;;;;;;;36.73;23.10;;;9.00;99.90;;;;;;5056070;28;20186;-64
2022/04/26 07:11:10;;;;;;;39.33;24.87;;;9.00;99.90;;;;;;5054307;28;20197;-64
2022/04/26 07:13:36;;;;;;;36.43;25.30;;;8.80;99.90;;;;;;5055996;28;20198;-64
2022/04/26 07:16:02;;;;;;;41.50;25.10;;;8.70;99.90;;;;;;5056116;28;20214;-64
2022/04/26 07:18:27;;;;;;;39.67;25.10;;;8.60;99.90;;;;;;5055127;28;20232;-65
2022/04/26 07:20:53;;;;;;;38.20;24.97;;;8.60;99.90;;;;;;5056302;28;20184;-64
2022/04/26 07:23:19;;;;;;;43.33;24.90;;;8.60;99.90;;;;;;5056186;28;20574;-64
2022/04/26 07:25:45;;;;;;;41.07;25.20;;;8.60;99.90;;;;;;5055928;28;20188;-64
2022/04/26 07:28:10;;;;;;;39.20;25.23;;;8.70;99.90;;;;;;5056249;28;20566;-64
2022/04/26 07:30:38;;;;;;;44.27;27.33;;;8.80;99.90;;;;;;5055830;28;20198;-64
2022/04/26 07:35:52;;;;;;;42.10;25.43;;;9.00;99.90;;;;;;5056063;28;20250;-64
2022/04/26 07:38:18;;;;;;;40.13;25.73;;;9.00;99.90;;;;;;5056123;28;20205;-64
2022/04/26 07:40:43;;;;;;;39.90;25.50;;;9.10;99.90;;;;;;5055552;28;20578;-64
2022/04/26 07:43:09;;;;;;;39.07;24.67;;;9.20;99.90;;;;;;5055758;28;20203;-64
2022/04/26 07:45:39;;;;;;;37.03;24.67;;;9.20;99.90;;;;;;5054403;28;20595;-64
2022/04/26 07:48:06;;;;;;;35.90;24.47;;;9.30;99.90;;;;;;5055627;28;20190;-65
2022/04/26 07:50:34;;;;;;;40.53;24.53;;;9.40;99.90;;;;;;5055430;28;20202;-64
2022/04/26 07:53:00;;;;;;;41.97;25.50;;;9.40;99.90;;;;;;5055763;28;20213;-64
2022/04/26 07:55:27;;;;;;;38.97;24.43;;;9.40;99.90;;;;;;5055272;28;20182;-64
2022/04/26 07:57:53;;;;;;;37.10;25.20;;;9.50;99.90;;;;;;5055249;28;20607;-64
2022/04/26 08:00:19;;;;;;;36.60;24.57;;;9.60;99.90;;;;;;5055125;28;20229;-64
2022/04/26 08:02:44;;;;;;;36.97;24.57;;;9.50;99.90;;;;;;5053786;28;20202;-64
2022/04/26 08:05:10;;;;;;;34.80;23.43;;;9.20;99.90;;;;;;5055632;28;20179;-64
2022/04/26 08:07:42;;;;;;;35.53;23.50;;;9.30;99.90;;;;;;5055075;28;20214;-64
2022/04/26 08:10:09;;;;;;;33.07;23.17;;;9.30;99.90;;;;;;5053584;28;20202;-64
2022/04/26 08:12:36;;;;;;;38.07;24.30;;;9.50;99.90;;;;;;5054664;28;20194;-64
2022/04/26 08:15:02;;;;;;;36.90;24.07;;;9.80;99.90;;;;;;5055152;28;20198;-64
2022/04/26 08:17:28;;;;;;;38.10;22.63;;;9.90;99.90;;;;;;5053683;28;20214;-64
2022/04/26 08:19:53;;;;;;;33.17;22.17;;;10.00;99.90;;;;;;5053545;28;20550;-64
2022/04/26 08:22:19;;;;;;;31.63;23.23;;;10.10;99.90;;;;;;5055031;28;20194;-65
2022/04/26 08:27:33;;;;;;;33.77;22.53;;;10.10;99.90;;;;;;5054516;28;20169;-65
2022/04/26 08:29:59;;;;;;;32.83;23.37;;;10.10;99.90;;;;;;5054511;28;20276;-65
2022/04/26 08:32:28;;;;;;;31.53;22.30;;;10.30;99.90;;;;;;5052680;28;20240;-64
2022/04/26 08:34:55;;;;;;;36.00;24.30;;;10.40;99.90;;;;;;5054519;28;20170;-64
2022/04/26 08:37:23;;;;;;;34.80;24.63;;;10.40;99.90;;;;;;5054792;28;20217;-64
2022/04/26 08:39:52;;;;;;;38.53;24.70;;;10.50;99.90;;;;;;5074365;28;20265;-64
2022/04/26 08:42:37;;;;;;;33.80;25.17;;;10.60;99.90;;;;;;5072673;28;20202;-64
2022/04/26 08:45:11;;;;;;;33.97;24.13;;;10.70;99.90;;;;;;5074596;28;20162;-64
2022/04/26 08:53:08;;;;;;;38.53;26.15;;;10.80;99.90;;;;;;5074613;28;20223;-64
2022/04/26 08:55:47;;;;;;;42.80;26.35;;;10.90;99.90;;;;;;5072840;28;20178;-65
2022/04/26 08:58:14;;;;;;;37.25;26.45;;;10.90;99.90;;;;;;5072840;28;20169;-64
2022/04/26 09:01:00;;;;;;;39.10;25.30;;;11.00;99.90;;;;;;5074278;28;20186;-64
2022/04/26 09:03:33;;;;;;;40.05;25.90;;;11.10;99.90;;;;;;5073941;28;20705;-65
2022/04/26 09:06:07;;;;;;;39.78;25.45;;;11.10;99.90;;;;;;5074159;28;20165;-64
2022/04/26 09:08:34;;;;;;;37.55;26.17;;;11.10;99.90;;;;;;5072555;28;20220;-65
2022/04/26 09:11:00;;;;;;;36.53;25.25;;;11.00;99.90;;;;;;5073369;28;20209;-64
2022/04/26 09:13:26;;;;;;;32.03;23.63;;;11.10;99.90;;;;;;5074589;28;20189;-65
2022/04/26 09:15:57;;;;;;;35.97;24.50;;;11.10;99.90;;;;;;5073760;28;20181;-64
2022/04/26 09:18:26;;;;;;;34.58;24.25;;;11.00;99.90;;;;;;5072508;28;20174;-65
2022/04/26 09:20:57;;;;;;;36.60;26.02;;;11.20;99.90;;;;;;5073667;28;20174;-64
2022/04/26 09:23:27;;;;;;;37.53;25.08;;;11.30;99.90;;;;;;5073687;28;20201;-64
2022/04/26 09:26:17;;;;;;;34.53;24.25;;;11.50;99.90;;;;;;5073757;28;20170;-64
2022/04/26 09:28:44;;;;;;;37.00;25.00;;;11.50;99.90;;;;;;5074056;28;20212;-65
2022/04/26 09:31:22;;;;;;;31.02;22.40;;;11.70;99.90;;;;;;5073395;28;20205;-65
2022/04/26 09:33:51;;;;;;;35.47;23.83;;;12.00;99.90;;;;;;5073386;28;20193;-65
2022/04/26 09:36:21;;;;;;;34.65;24.58;;;12.20;99.90;;;;;;5072156;28;20174;-65
2022/04/26 09:38:58;;;;;;;34.67;25.60;;;12.40;99.90;;;;;;5073289;28;20597;-65
2022/04/26 09:41:25;;;;;;;31.73;21.92;;;12.60;99.90;;;;;;5073227;28;20169;-65
2022/04/26 09:44:04;;;;;;;28.88;21.00;;;12.90;99.90;;;;;;5071194;28;20543;-65
2022/04/26 09:46:49;;;;;;;32.10;20.63;;;13.10;99.90;;;;;;5073912;28;20256;-65
2022/04/26 09:49:21;;;;;;;26.45;19.10;;;12.80;99.90;;;;;;5073649;28;20185;-65
2022/04/26 09:51:51;;;;;;;28.83;20.50;;;12.90;99.90;;;;;;5073592;28;20234;-65
2022/04/26 09:54:18;;;;;;;28.48;20.40;;;13.10;99.90;;;;;;5074155;28;20226;-65
2022/04/26 09:56:47;;;;;;;25.60;18.45;;;13.30;99.90;;;;;;5073331;28;20249;-64
2022/04/26 09:59:18;;;;;;;29.38;20.25;;;13.50;99.90;;;;;;5073669;28;20291;-65
2022/04/26 10:01:47;;;;;;;26.67;19.98;;;13.70;99.90;;;;;;5073382;28;20162;-65
2022/04/26 10:04:17;;;;;;;28.77;19.75;;;13.80;99.90;;;;;;5071944;28;20323;-65
2022/04/26 10:06:43;;;;;;;28.65;20.00;;;13.90;99.90;;;;;;5073815;28;20178;-65
2022/04/26 10:09:10;;;;;;;29.67;20.65;;;14.00;99.90;;;;;;5073134;28;20197;-65
2022/04/26 10:11:36;;;;;;;30.33;20.33;;;14.10;99.90;;;;;;5072639;28;20193;-65
2022/04/26 10:14:05;;;;;;;26.38;19.52;;;14.20;99.90;;;;;;5073021;28;20189;-65
2022/04/26 10:16:32;;;;;;;29.35;20.13;;;14.50;99.90;;;;;;5073215;28;20267;-65
2022/04/26 10:19:12;;;;;;;26.10;18.05;;;14.90;99.90;;;;;;5073408;28;20177;-65
2022/04/26 10:21:38;;;;;;;27.23;18.55;;;15.20;99.90;;;;;;5073297;28;20162;-65
2022/04/26 10:24:23;;;;;;;28.15;19.45;;;15.60;99.90;;;;;;5073036;28;20220;-65
2022/04/26 10:26:51;;;;;;;24.73;17.50;;;15.50;99.90;;;;;;5072875;28;20197;-65
2022/04/26 10:29:26;;;;;;;26.17;18.23;;;15.20;99.90;;;;;;5073208;28;20194;-65
2022/04/26 10:32:01;;;;;;;27.13;19.40;;;15.50;99.90;;;;;;5073229;28;20521;-65
2022/04/26 10:34:29;;;;;;;21.90;17.63;;;16.00;99.90;;;;;;5072854;28;20176;-65
2022/04/26 10:37:07;;;;;;;24.00;18.10;;;16.40;99.90;;;;;;5071624;28;20646;-65
2022/04/26 10:39:45;;;;;;;34.30;23.70;;;16.30;99.90;;;;;;5072794;28;20184;-65
2022/04/26 10:42:16;;;;;;;27.77;20.27;;;16.10;99.90;;;;;;5072961;28;20273;-65
2022/04/26 10:44:46;;;;;;;30.38;21.20;;;15.80;99.90;;;;;;5072832;28;20251;-65
2022/04/26 10:47:12;;;;;;;28.45;20.27;;;15.40;99.90;;;;;;5072870;28;20170;-65
2022/04/26 10:49:42;;;;;;;28.85;19.90;;;15.20;99.90;;;;;;5072710;28;20216;-65
2022/04/26 10:52:34;;;;;;;27.92;19.52;;;15.00;99.90;;;;;;5072796;28;20190;-66
2022/04/26 10:55:03;;;;;;;27.73;19.25;;;14.80;99.90;;;;;;5074374;28;20177;-65
2022/04/26 10:57:30;;;;;;;27.13;19.65;;;14.70;99.90;;;;;;5077018;28;20170;-65
2022/04/26 11:00:02;;;;;;;31.58;20.83;;;14.60;99.90;;;;;;5076869;28;20219;-65
2022/04/26 11:02:35;;;;;;;29.05;20.95;;;14.80;99.90;;;;;;5076535;28;20677;-65
2022/04/26 11:05:17;;;;;;;29.90;20.20;;;14.90;99.90;;;;;;5074963;28;20182;-65
2022/04/26 11:07:46;;;;;;;27.30;20.50;;;15.10;99.90;;;;;;5076185;28;20182;-65
2022/04/26 11:10:13;;;;;;;31.30;20.13;;;15.40;99.90;;;;;;5075989;28;20655;-65
2022/04/26 11:12:40;;;;;;;28.60;19.52;;;15.60;99.90;;;;;;5076061;28;20727;-65
2022/04/26 11:15:10;;;;;;;27.50;20.45;;;16.20;99.90;;;;;;5076109;28;20412;-65
2022/04/26 11:17:37;;;;;;;27.70;19.52;;;16.60;99.90;;;;;;5074902;28;20174;-65
2022/04/26 11:20:12;;;;;;;26.58;20.55;;;16.70;99.90;;;;;;5075964;28;20185;-65
2022/04/26 11:22:45;;;;;;;29.42;20.88;;;16.80;99.90;;;;;;5074770;28;20200;-65
2022/04/26 11:28:09;;;;;;;21.90;17.55;;;16.70;99.90;;;;;;5075777;28;20173;-65
2022/04/26 11:30:39;;;;;;;21.77;17.20;;;17.10;99.90;;;;;;5075793;28;20185;-66
2022/04/26 11:33:11;;;;;;;21.73;17.33;;;17.70;99.90;;;;;;5075958;28;20544;-65
2022/04/26 11:35:38;;;;;;;22.70;18.60;;;18.10;99.90;;;;;;5075975;28;20646;-65
2022/04/26 11:38:09;;;;;;;24.83;18.45;;;18.30;99.90;;;;;;5074406;28;20368;-65
2022/04/26 11:40:54;;;;;;;26.98;18.88;;;18.50;99.90;;;;;;5076118;28;20197;-65
2022/04/26 11:43:22;;;;;;;20.77;16.80;;;18.80;99.90;;;;;;5075418;28;20213;-65
2022/04/26 11:45:53;;;;;;;22.50;18.00;;;19.20;99.90;;;;;;5074391;28;20272;-66
2022/04/26 11:48:29;;;;;;;19.23;16.23;;;19.50;99.90;;;;;;5075644;28;20174;-66
2022/04/26 11:50:57;;;;;;;23.33;17.83;;;19.80;99.90;;;;;;5076185;28;20189;-66
2022/04/26 11:53:36;;;;;;;21.08;17.73;;;19.60;99.90;;;;;;5075704;28;20189;-65
2022/04/26 11:56:06;;;;;;;23.33;18.05;;;19.10;99.90;;;;;;5076190;28;20557;-66
2022/04/26 11:58:36;;;;;;;21.98;17.90;;;18.60;99.90;;;;;;5075506;28;20253;-65
2022/04/26 12:01:05;;;;;;;23.70;17.50;;;18.60;99.90;;;;;;5075594;28;20182;-65
2022/04/26 12:03:36;;;;;;;25.35;19.63;;;18.60;99.90;;;;;;5074082;28;20682;-66
2022/04/26 12:06:07;;;;;;;23.40;18.42;;;18.00;99.90;;;;;;5074801;28;20162;-65
2022/04/26 12:08:39;;;;;;;23.38;16.80;;;17.50;99.90;;;;;;5075371;28;20186;-64
2022/04/26 12:11:18;;;;;;;22.27;16.83;;;17.40;99.90;;;;;;5075284;28;20575;-65
2022/04/26 12:13:44;;;;;;;21.33;17.15;;;17.80;99.90;;;;;;5075717;28;20654;-65
2022/04/26 12:16:20;;;;;;;24.20;17.80;;;18.10;99.90;;;;;;5074967;28;20178;-64
2022/04/26 12:18:54;;;;;;;20.50;16.45;;;18.30;99.90;;;;;;5075063;28;20168;-64
2022/04/26 12:21:21;;;;;;;19.15;15.13;;;18.40;99.90;;;;;;5075915;28;20705;-65
2022/04/26 12:23:48;;;;;;;19.30;15.63;;;18.00;99.90;;;;;;5074954;28;20227;-65
2022/04/26 12:26:14;;;;;;;15.82;12.27;;;17.70;99.90;;;;;;5074775;28;20646;-64
2022/04/26 12:28:48;;;;;;;15.05;11.48;;;17.20;99.90;;;;;;5074568;28;20173;-64
2022/04/26 12:31:25;;;;;;;13.02;10.80;;;16.40;99.90;;;;;;5074572;28;20193;-64
2022/04/26 12:34:16;;;;;;;15.02;11.40;;;15.60;99.90;;;;;;5074573;28;20211;-64
2022/04/26 12:36:59;;;;;;;13.82;10.43;;;14.90;99.90;;;;;;5074612;28;20217;-65
2022/04/26 12:39:38;;;;;;;15.10;10.63;;;14.10;99.90;;;;;;5074467;28;20177;-64
2022/04/26 12:42:05;;;;;;;12.98;10.00;;;13.50;99.90;;;;;;5074192;28;20213;-64
2022/04/26 12:44:31;;;;;;;18.10;12.68;;;13.10;99.90;;;;;;5074316;28;20185;-64
2022/04/26 12:52:52;;;;;;;14.68;11.90;;;12.60;99.90;;;;;;5074450;28;20566;-64
2022/04/26 12:55:25;;;;;;;14.40;11.55;;;12.60;99.90;;;;;;5074232;28;20223;-64
2022/04/26 12:57:53;;;;;;;14.85;11.25;;;12.60;99.90;;;;;;5074085;28;20541;-64
2022/04/26 13:00:22;;;;;;;16.13;11.65;;;12.70;99.90;;;;;;5074207;28;20174;-64
2022/04/26 13:02:50;;;;;;;16.55;12.02;;;13.00;99.90;;;;;;5072588;28;20662;-64
2022/04/26 13:05:15;;;;;;;19.50;13.57;;;13.10;99.90;;;;;;5074435;28;20865;-64
2022/04/26 13:07:43;;;;;;;19.20;15.88;;;13.40;99.90;;;;;;5072965;28;20237;-65
2022/04/26 13:10:09;;;;;;;18.02;14.57;;;13.50;99.90;;;;;;5074055;28;20232;-64
2022/04/26 13:12:35;;;;;;;18.63;15.05;;;13.90;99.90;;;;;;5073791;28;20205;-64
2022/04/26 13:15:01;;;;;;;17.40;14.75;;;14.40;99.90;;;;;;5074053;28;20176;-65
2022/04/26 13:17:27;;;;;;;17.58;14.93;;;14.70;99.90;;;;;;5073863;28;20174;-64
2022/04/26 13:19:52;;;;;;;19.17;15.38;;;14.70;99.90;;;;;;5074261;28;20181;-65
2022/04/26 13:22:19;;;;;;;18.77;15.07;;;14.60;99.90;;;;;;5073775;28;20197;-65
2022/04/26 13:24:44;;;;;;;17.08;13.63;;;14.30;99.90;;;;;;5074003;28;20185;-64
2022/04/26 13:27:11;;;;;;;21.63;14.73;;;14.30;99.90;;;;;;5074159;28;20178;-64
2022/04/26 13:29:37;;;;;;;17.73;13.45;;;14.20;99.90;;;;;;5074206;28;20560;-64
2022/04/26 13:32:04;;;;;;;19.88;13.07;;;14.30;99.90;;;;;;5073837;28;20194;-64
2022/04/26 13:34:30;;;;;;;16.08;12.85;;;14.30;99.90;;;;;;5073822;28;20680;-64
2022/04/26 13:36:55;;;;;;;16.05;12.63;;;14.40;99.90;;;;;;5074149;28;20170;-64
2022/04/26 13:39:21;;;;;;;15.73;12.57;;;14.20;99.90;;;;;;5073675;28;20177;-65
2022/04/26 13:41:50;;;;;;;14.15;11.68;;;14.30;99.90;;;;;;5073282;28;20256;-64
2022/04/26 13:44:19;;;;;;;13.70;11.40;;;14.30;99.90;;;;;;5073800;28;20661;-64
2022/04/26 13:46:48;;;;;;;14.50;12.07;;;14.30;99.90;;;;;;5073672;28;20174;-64
2022/04/26 13:49:14;;;;;;;18.52;13.18;;;14.40;99.90;;;;;;5072024;28;20704;-64
2022/04/26 13:51:40;;;;;;;17.92;13.85;;;14.60;99.90;;;;;;5073282;28;20257;-64
2022/04/26 13:54:06;;;;;;;18.05;13.40;;;14.50;99.90;;;;;;5073424;28;20238;-64
2022/04/26 13:56:31;;;;;;;14.75;12.30;;;14.70;99.90;;;;;;5074406;28;20180;-64
2022/04/26 13:58:57;;;;;;;18.00;14.35;;;15.00;99.90;;;;;;5073050;28;20194;-64
2022/04/26 14:01:23;;;;;;;18.42;14.00;;;15.40;99.90;;;;;;5073321;28;20197;-64
2022/04/26 14:03:49;;;;;;;18.20;14.30;;;15.10;99.90;;;;;;5073268;28;20189;-64
2022/04/26 14:06:21;;;;;;;18.75;14.88;;;14.80;99.90;;;;;;5073045;28;20223;-64
2022/04/26 14:08:50;;;;;;;19.20;14.48;;;15.10;99.90;;;;;;5072601;28;20193;-63
2022/04/26 14:11:17;;;;;;;18.75;15.35;;;15.30;99.90;;;;;;5072419;28;20209;-63
2022/04/26 14:21:59;;;;;;;10.05;8.07;;;14.60;99.90;;;;;;5072887;28;20644;-61
2022/04/26 14:24:25;;;;;;;11.25;8.27;;;14.00;99.90;;;;;;5073071;28;20162;-62
2022/04/26 14:26:51;;;;;;;11.27;8.68;;;13.50;99.90;;;;;;5073307;28;20696;-62
2022/04/26 14:29:17;;;;;;;10.57;8.63;;;13.00;99.90;;;;;;5075828;28;20165;-61
2022/04/26 14:31:43;;;;;;;10.55;8.98;;;12.50;99.90;;;;;;5076489;28;20159;-62
2022/04/26 14:34:09;;;;;;;13.48;10.75;;;12.20;99.90;;;;;;5076283;28;20170;-62
2022/04/26 14:36:34;;;;;;;15.00;11.20;;;11.80;99.90;;;;;;5076708;28;20570;-67
2022/04/26 14:39:00;;;;;;;16.50;11.38;;;11.50;99.90;;;;;;5076221;28;20204;-66
2022/04/26 14:41:26;;;;;;;15.25;10.70;;;11.30;99.90;;;;;;5076417;28;20235;-62
2022/04/26 14:43:53;;;;;;;14.50;10.30;;;11.00;99.90;;;;;;5075724;28;20227;-63
2022/04/26 14:46:19;;;;;;;12.93;10.10;;;10.90;99.90;;;;;;5076879;28;20227;-63
2022/04/26 14:48:45;;;;;;;13.20;10.35;;;10.70;99.90;;;;;;5074623;28;20235;-63
2022/04/26 14:51:11;;;;;;;13.07;9.82;;;10.50;99.90;;;;;;5074658;28;20288;-62
2022/04/26 14:53:38;;;;;;;12.27;10.18;;;10.30;99.90;;;;;;5075908;28;20202;-63
2022/04/26 14:56:05;;;;;;;11.27;10.02;;;10.30;99.90;;;;;;5076136;28;20162;-63
2022/04/26 14:58:30;;;;;;;12.05;9.98;;;10.10;99.90;;;;;;5074288;28;20201;-61
2022/04/26 15:00:57;;;;;;;13.33;9.37;;;10.10;99.90;;;;;;5075848;28;20227;-61
2022/04/26 15:03:23;;;;;;;12.23;9.83;;;10.10;99.90;;;;;;5075070;28;20212;-61
2022/04/26 15:05:49;;;;;;;11.80;9.03;;;10.10;99.90;;;;;;5076322;28;20256;-62
2022/04/26 15:10:59;;;;;;;17.83;15.60;;;9.90;99.90;;;;;;5075954;28;20247;-61
2022/04/26 15:18:52;;;;;;;15.13;12.27;;;9.40;99.90;;;;;;5075681;28;20287;-63
2022/04/26 15:21:18;;;;;;;14.90;12.00;;;9.40;99.90;;;;;;5074125;28;20713;-62
2022/04/26 15:23:44;;;;;;;13.57;11.67;;;9.50;99.90;;;;;;5076015;28;20198;-61
2022/04/26 15:26:11;;;;;;;14.47;12.13;;;9.60;99.90;;;;;;5075905;28;20182;-62
2022/04/26 15:28:41;;;;;;;13.47;11.13;;;9.60;99.90;;;;;;5075031;28;20174;-62
2022/04/26 15:31:07;;;;;;;13.33;11.10;;;9.60;99.90;;;;;;5075250;28;20535;-62
2022/04/26 15:33:33;;;;;;;15.70;10.93;;;9.60;99.90;;;;;;5074973;28;20255;-63
2022/04/26 15:35:59;;;;;;;14.90;10.93;;;9.70;99.90;;;;;;5075281;28;20576;-63
2022/04/26 15:38:27;;;;;;;13.47;10.53;;;9.70;99.90;;;;;;5075050;28;20273;-63
2022/04/26 15:40:54;;;;;;;17.90;11.93;;;9.80;99.90;;;;;;5074610;28;20180;-63
2022/04/26 15:43:21;;;;;;;16.43;11.37;;;9.90;99.90;;;;;;5075176;28;20251;-62
2022/04/26 15:45:46;;;;;;;19.27;12.47;;;10.00;99.90;;;;;;5075414;28;20217;-63
2022/04/26 15:48:12;;;;;;;15.23;12.07;;;10.10;99.90;;;;;;5075004;28;20212;-64
2022/04/26 15:50:41;;;;;;;15.40;11.67;;;10.20;99.90;;;;;;5075216;28;20214;-64
2022/04/26 15:53:08;;;;;;;13.63;11.63;;;10.20;99.90;;;;;;5075067;28;20198;-63
2022/04/26 15:55:34;;;;;;;19.60;14.73;;;10.20;99.90;;;;;;5074731;28;20253;-65
2022/04/26 15:58:00;;;;;;;19.27;15.20;;;10.30;99.90;;;;;;5074329;28;20185;-65
2022/04/26 16:00:26;;;;;;;14.87;11.13;;;10.30;99.90;;;;;;5074639;28;20192;-66
2022/04/26 16:02:53;;;;;;;16.43;12.67;;;10.40;99.90;;;;;;5074504;28;20395;-66
2022/04/26 16:05:19;;;;;;;16.83;13.73;;;10.50;99.90;;;;;;5073409;28;20192;-73
2022/04/26 16:07:45;;;;;;;17.83;14.83;;;10.40;99.90;;;;;;5074558;28;20182;-66
2022/04/26 16:21:09;;;;;;;22.63;16.97;;;10.00;99.90;;;;;;5074557;28;20176;-63
2022/04/26 16:23:35;;;;;;;16.90;14.33;;;10.00;99.90;;;;;;5074237;28;20292;-63
2022/04/26 16:26:06;;;;;;;18.20;13.93;;;10.10;99.90;;;;;;5074469;28;20181;-62
2022/04/26 16:28:36;;;;;;;19.67;15.33;;;10.10;99.90;;;;;;5074254;28;20158;-64
2022/04/26 16:31:03;;;;;;;17.57;13.37;;;10.10;99.90;;;;;;5074384;28;20189;-63
2022/04/26 16:33:30;;;;;;;19.73;15.23;;;10.30;99.90;;;;;;5074139;28;20669;-63
2022/04/26 16:35:56;;;;;;;18.43;15.10;;;10.50;99.90;;;;;;5073872;28;20181;-63
2022/04/26 16:38:22;;;;;;;19.30;15.33;;;10.60;99.90;;;;;;5067526;28;20182;-64
2022/04/26 16:40:50;;;;;;;18.63;14.37;;;10.60;99.90;;;;;;5059521;28;20158;-63
2022/04/26 16:43:16;;;;;;;15.50;12.63;;;10.60;99.90;;;;;;5056520;28;20293;-65
2022/04/26 16:45:47;;;;;;;16.90;13.40;;;10.70;99.90;;;;;;5054794;28;20179;-63
2022/04/26 16:48:13;;;;;;;16.97;14.57;;;10.50;99.90;;;;;;5058213;28;20604;-63
2022/04/26 16:50:38;;;;;;;17.63;13.50;;;10.50;99.90;;;;;;5053067;28;20240;-64
2022/04/26 16:53:05;;;;;;;16.57;13.07;;;10.50;99.90;;;;;;5053420;28;20202;-65
2022/04/26 16:55:32;;;;;;;18.20;14.70;;;10.60;99.90;;;;;;5054687;28;20179;-63
2022/04/26 16:57:58;;;;;;;19.17;14.63;;;10.50;99.90;;;;;;5055111;28;20174;-64
2022/04/26 17:00:26;;;;;;;18.53;16.13;;;10.50;99.90;;;;;;5053986;28;20590;-64